Time;durP1;ratioP1;P1;durP2;ratioP2;P2;SDS_P1;SDS_P2;PMS_P1;PMS_P2;Temp;Humidity;BMP_temperature;BMP_pressure;BME280_temperature;BME280_humidity;BME280_pressure;Samples;Min_cycle;Max_cycle;Signal;HPM_P1;HPM_P2
2023/07/24 00:00:02;;;;;;;;;;;;;;;;;;1271387;23;19912;-18
2023/07/24 00:00:33;;;;;;;;;;;;;;;;;;1271159;23;20356;-18
2023/07/24 00:01:04;;;;;;;;;;;;;;;;;;1271443;23;19912;-19
2023/07/24 00:01:34;;;;;;;;;;;;;;;;;;1271684;23;19912;-20
2023/07/24 00:02:04;;;;;;;;;;;;;;;;;;1271380;23;19956;-21
2023/07/24 00:02:34;;;;;;;;;;;;;;;;;;1271496;23;20038;-19
2023/07/24 00:03:05;;;;;;;;;;;;;;;;;;1271346;23;19912;-20
2023/07/24 00:03:35;;;;;;;;;;;;;;;;;;1271570;23;19919;-19
2023/07/24 00:04:05;;;;;;;;;;;;;;;;;;1271757;23;19939;-22
2023/07/24 00:04:35;;;;;;;;;;;;;;;;;;1272035;23;19911;-21
2023/07/24 00:05:05;;;;;;;;;;;;;;;;;;1271676;23;19905;-22
2023/07/24 00:05:36;;;;;;;;;;;;;;;;;;1271699;23;19938;-20
2023/07/24 00:06:06;;;;;;;;;;;;;;;;;;1271145;23;20465;-21
2023/07/24 00:06:36;;;;;;;;;;;;;;;;;;1271466;23;19955;-20
2023/07/24 00:07:06;;;;;;;;;;;;;;;;;;1271391;23;19987;-19
2023/07/24 00:07:36;;;;;;;;;;;;;;;;;;1271623;23;19991;-17
2023/07/24 00:08:07;;;;;;;;;;;;;;;;;;1271404;23;19977;-21
2023/07/24 00:08:37;;;;;;;;;;;;;;;;;;1271369;23;19909;-21
2023/07/24 00:09:07;;;;;;;;;;;;;;;;;;1271474;23;19912;-18
2023/07/24 00:09:37;;;;;;;;;;;;;;;;;;1271530;23;19971;-22
2023/07/24 00:10:08;;;;;;;;;;;;;;;;;;1271239;23;20277;-17
2023/07/24 00:10:38;;;;;;;;;;;;;;;;;;1271357;23;20278;-19
2023/07/24 00:11:08;;;;;;;;;;;;;;;;;;1271430;23;20222;-20
2023/07/24 00:11:38;;;;;;;;;;;;;;;;;;1271518;23;19909;-19
2023/07/24 00:12:09;;;;;;;;;;;;;;;;;;1271417;23;19911;-19
2023/07/24 00:12:39;;;;;;;;;;;;;;;;;;1271359;23;19991;-18
2023/07/24 00:13:09;;;;;;;;;;;;;;;;;;1271458;23;19905;-19
2023/07/24 00:13:39;;;;;;;;;;;;;;;;;;1271546;23;19916;-20
2023/07/24 00:14:10;;;;;;;;;;;;;;;;;;1271439;23;19919;-18
2023/07/24 00:14:40;;;;;;;;;;;;;;;;;;1271362;23;19916;-20
2023/07/24 00:15:10;;;;;;;;;;;;;;;;;;1271390;23;19905;-18
2023/07/24 00:15:40;;;;;;;;;;;;;;;;;;1271684;23;20354;-21
2023/07/24 00:16:10;;;;;;;;;;;;;;;;;;1264905;23;19987;-21
2023/07/24 00:16:41;;;;;;;;;;;;;;;;;;1264769;23;19955;-19
2023/07/24 00:17:11;;;;;;;;;;;;;;;;;;1264871;23;19905;-19
2023/07/24 00:17:41;;;;;;;;;;;;;;;;;;1265187;23;19912;-22
2023/07/24 00:18:12;;;;;;;;;;;;;;;;;;1271423;23;19912;-19
2023/07/24 00:18:42;;;;;;;;;;;;;;;;;;1271443;23;19908;-21
2023/07/24 00:19:12;;;;;;;;;;;;;;;;;;1271333;23;19955;-20
2023/07/24 00:19:42;;;;;;;;;;;;;;;;;;1271647;23;19954;-20
2023/07/24 00:20:12;;;;;;;;;;;;;;;;;;1271348;23;19912;-19
2023/07/24 00:20:43;;;;;;;;;;;;;;;;;;1271413;23;19916;-18
2023/07/24 00:21:13;;;;;;;;;;;;;;;;;;1271295;23;19932;-22
2023/07/24 00:21:43;;;;;;;;;;;;;;;;;;1271530;23;20004;-20
2023/07/24 00:22:13;;;;;;;;;;;;;;;;;;1271419;23;19905;-18
2023/07/24 00:22:44;;;;;;;;;;;;;;;;;;1271369;23;19912;-19
2023/07/24 00:23:14;;;;;;;;;;;;;;;;;;1271416;23;19911;-19
2023/07/24 00:23:44;;;;;;;;;;;;;;;;;;1271169;23;19947;-20
2023/07/24 00:24:14;;;;;;;;;;;;;;;;;;1271487;23;19912;-18
2023/07/24 00:24:44;;;;;;;;;;;;;;;;;;1271314;23;19912;-19
2023/07/24 00:25:15;;;;;;;;;;;;;;;;;;1271319;23;19913;-19
2023/07/24 00:25:45;;;;;;;;;;;;;;;;;;1271611;23;19913;-21
2023/07/24 00:26:15;;;;;;;;;;;;;;;;;;1271440;23;19908;-21
2023/07/24 00:26:45;;;;;;;;;;;;;;;;;;1271310;23;19915;-14
2023/07/24 00:27:15;;;;;;;;;;;;;;;;;;1271414;23;19905;-22
2023/07/24 00:27:46;;;;;;;;;;;;;;;;;;1271545;23;19916;-20
2023/07/24 00:28:16;;;;;;;;;;;;;;;;;;1271438;23;19905;-20
2023/07/24 00:28:46;;;;;;;;;;;;;;;;;;1271279;23;19909;-19
2023/07/24 00:29:16;;;;;;;;;;;;;;;;;;1271477;23;19911;-19
2023/07/24 00:29:47;;;;;;;;;;;;;;;;;;1271454;23;19905;-19
2023/07/24 00:30:17;;;;;;;;;;;;;;;;;;1271450;23;20241;-20
2023/07/24 00:30:47;;;;;;;;;;;;;;;;;;1271362;23;20237;-20
2023/07/24 00:31:17;;;;;;;;;;;;;;;;;;1271452;23;20237;-20
2023/07/24 00:31:47;;;;;;;;;;;;;;;;;;1271538;23;20230;-21
2023/07/24 00:32:18;;;;;;;;;;;;;;;;;;1271447;23;20228;-20
2023/07/24 00:32:48;;;;;;;;;;;;;;;;;;1271256;23;19966;-16
2023/07/24 00:33:18;;;;;;;;;;;;;;;;;;1271569;23;19954;-20
2023/07/24 00:33:48;;;;;;;;;;;;;;;;;;1271362;23;19913;-17
2023/07/24 00:34:19;;;;;;;;;;;;;;;;;;1271488;23;19983;-18
2023/07/24 00:34:49;;;;;;;;;;;;;;;;;;1271137;23;19939;-19
2023/07/24 00:35:19;;;;;;;;;;;;;;;;;;1271358;23;19904;-17
2023/07/24 00:35:49;;;;;;;;;;;;;;;;;;1271269;23;20237;-16
2023/07/24 00:36:19;;;;;;;;;;;;;;;;;;1271204;23;19905;-18
2023/07/24 00:36:50;;;;;;;;;;;;;;;;;;1271191;23;19954;-17
2023/07/24 00:37:20;;;;;;;;;;;;;;;;;;1271586;23;19904;-21
2023/07/24 00:37:50;;;;;;;;;;;;;;;;;;1271364;23;19905;-19
2023/07/24 00:38:20;;;;;;;;;;;;;;;;;;1271555;23;19905;-17
2023/07/24 00:38:51;;;;;;;;;;;;;;;;;;1270980;23;19905;-19
2023/07/24 00:39:21;;;;;;;;;;;;;;;;;;1271563;23;19949;-20
2023/07/24 00:39:51;;;;;;;;;;;;;;;;;;1271178;23;19908;-17
2023/07/24 00:40:21;;;;;;;;;;;;;;;;;;1271600;23;20313;-22
2023/07/24 00:40:52;;;;;;;;;;;;;;;;;;1271242;23;19908;-17
2023/07/24 00:41:22;;;;;;;;;;;;;;;;;;1271493;23;19912;-20
2023/07/24 00:41:52;;;;;;;;;;;;;;;;;;1271413;23;19911;-21
2023/07/24 00:42:22;;;;;;;;;;;;;;;;;;1271605;23;19912;-20
2023/07/24 00:42:52;;;;;;;;;;;;;;;;;;1271163;23;19905;-20
2023/07/24 00:43:23;;;;;;;;;;;;;;;;;;1271503;23;19904;-21
2023/07/24 00:43:53;;;;;;;;;;;;;;;;;;1271382;23;19912;-22
2023/07/24 00:44:23;;;;;;;;;;;;;;;;;;1271495;23;19905;-20
2023/07/24 00:44:53;;;;;;;;;;;;;;;;;;1271213;23;19995;-18
2023/07/24 00:45:23;;;;;;;;;;;;;;;;;;1271546;23;19911;-20
2023/07/24 00:45:54;;;;;;;;;;;;;;;;;;1271407;23;19905;-21
2023/07/24 00:46:24;;;;;;;;;;;;;;;;;;1271520;23;19912;-20
2023/07/24 00:46:54;;;;;;;;;;;;;;;;;;1271238;23;20116;-19
2023/07/24 00:47:24;;;;;;;;;;;;;;;;;;1271538;23;19912;-19
2023/07/24 00:47:55;;;;;;;;;;;;;;;;;;1271352;23;19999;-18
2023/07/24 00:48:25;;;;;;;;;;;;;;;;;;1271604;23;20245;-21
2023/07/24 00:48:55;;;;;;;;;;;;;;;;;;1271239;23;20325;-18
2023/07/24 00:49:25;;;;;;;;;;;;;;;;;;1271632;23;20313;-20
2023/07/24 00:49:55;;;;;;;;;;;;;;;;;;1271392;23;19968;-18
2023/07/24 00:50:26;;;;;;;;;;;;;;;;;;1271487;23;19908;-21
2023/07/24 00:50:56;;;;;;;;;;;;;;;;;;1271089;23;19912;-20
2023/07/24 00:51:26;;;;;;;;;;;;;;;;;;1271639;23;19904;-17
2023/07/24 00:51:56;;;;;;;;;;;;;;;;;;1271389;23;19915;-19
2023/07/24 00:52:27;;;;;;;;;;;;;;;;;;1271573;23;19904;-19
2023/07/24 00:52:57;;;;;;;;;;;;;;;;;;1271188;23;19905;-16
2023/07/24 00:53:27;;;;;;;;;;;;;;;;;;1271230;23;20264;-19
2023/07/24 00:53:57;;;;;;;;;;;;;;;;;;1271262;23;19950;-19
2023/07/24 00:54:27;;;;;;;;;;;;;;;;;;1271465;23;19905;-19
2023/07/24 00:54:58;;;;;;;;;;;;;;;;;;1271252;23;19914;-19
2023/07/24 00:55:28;;;;;;;;;;;;;;;;;;1271535;23;19924;-16
2023/07/24 00:55:58;;;;;;;;;;;;;;;;;;1271386;23;19943;-19
2023/07/24 00:56:28;;;;;;;;;;;;;;;;;;1271474;23;20162;-20
2023/07/24 00:56:58;;;;;;;;;;;;;;;;;;1271290;23;19904;-20
2023/07/24 00:57:29;;;;;;;;;;;;;;;;;;1271564;23;19904;-17
2023/07/24 00:57:59;;;;;;;;;;;;;;;;;;1271350;23;19904;-20
2023/07/24 00:58:29;;;;;;;;;;;;;;;;;;1271454;23;19927;-20
2023/07/24 00:58:59;;;;;;;;;;;;;;;;;;1271199;23;19905;-20
2023/07/24 00:59:30;;;;;;;;;;;;;;;;;;1271589;23;19904;-18
2023/07/24 01:00:00;;;;;;;;;;;;;;;;;;1271240;23;19904;-20
2023/07/24 01:00:30;;;;;;;;;;;;;;;;;;1271139;23;20214;-19
2023/07/24 01:01:00;;;;;;;;;;;;;;;;;;1271282;23;19905;-19
2023/07/24 01:01:31;;;;;;;;;;;;;;;;;;1271607;23;19912;-20
2023/07/24 01:02:01;;;;;;;;;;;;;;;;;;1271341;23;19928;-20
2023/07/24 01:02:31;;;;;;;;;;;;;;;;;;1271439;23;19905;-21
2023/07/24 01:03:01;;;;;;;;;;;;;;;;;;1271243;23;19905;-20
2023/07/24 01:03:31;;;;;;;;;;;;;;;;;;1271571;23;19936;-20
2023/07/24 01:04:02;;;;;;;;;;;;;;;;;;1271363;23;19909;-18
2023/07/24 01:04:32;;;;;;;;;;;;;;;;;;1271472;23;19911;-18
2023/07/24 01:05:02;;;;;;;;;;;;;;;;;;1271230;23;19911;-19
2023/07/24 01:05:32;;;;;;;;;;;;;;;;;;1271505;23;19915;-20
2023/07/24 01:06:03;;;;;;;;;;;;;;;;;;1271167;23;19911;-22
2023/07/24 01:06:33;;;;;;;;;;;;;;;;;;1271381;23;19905;-20
2023/07/24 01:07:03;;;;;;;;;;;;;;;;;;1271258;23;19905;-21
2023/07/24 01:07:33;;;;;;;;;;;;;;;;;;1271633;23;20340;-17
2023/07/24 01:08:03;;;;;;;;;;;;;;;;;;1271311;23;20007;-19
2023/07/24 01:08:34;;;;;;;;;;;;;;;;;;1271195;23;20029;-20
2023/07/24 01:09:04;;;;;;;;;;;;;;;;;;1271223;23;19969;-20
2023/07/24 01:09:34;;;;;;;;;;;;;;;;;;1271483;23;19955;-20
2023/07/24 01:10:06;;;;;;;;;;;;;;;;;;1271298;23;19996;-21
2023/07/24 01:10:36;;;;;;;;;;;;;;;;;;1271208;23;19913;-18
2023/07/24 01:11:07;;;;;;;;;;;;;;;;;;1271379;23;19904;-22
2023/07/24 01:11:37;;;;;;;;;;;;;;;;;;1271542;23;19909;-18
2023/07/24 01:12:07;;;;;;;;;;;;;;;;;;1271354;23;19904;-20
2023/07/24 01:12:38;;;;;;;;;;;;;;;;;;1271338;23;19954;-20
2023/07/24 01:13:08;;;;;;;;;;;;;;;;;;1271318;23;20329;-22
2023/07/24 01:13:38;;;;;;;;;;;;;;;;;;1271365;23;20435;-19
2023/07/24 01:14:11;;;;;;;;;;;;;;;;;;1271441;23;19949;-19
2023/07/24 01:14:41;;;;;;;;;;;;;;;;;;1271284;23;19909;-17
2023/07/24 01:15:12;;;;;;;;;;;;;;;;;;1271250;23;19983;-18
2023/07/24 01:15:42;;;;;;;;;;;;;;;;;;1271356;23;19995;-17
2023/07/24 01:16:12;;;;;;;;;;;;;;;;;;1271355;23;19904;-22
2023/07/24 01:16:46;;;;;;;;;;;;;;;;;;1271114;23;19917;-21
2023/07/24 01:17:17;;;;;;;;;;;;;;;;;;1271289;23;19904;-20
2023/07/24 01:17:47;;;;;;;;;;;;;;;;;;1271381;23;19905;-18
2023/07/24 01:18:17;;;;;;;;;;;;;;;;;;1271421;23;20232;-20
2023/07/24 01:18:47;;;;;;;;;;;;;;;;;;1271269;23;19967;-17
2023/07/24 01:19:18;;;;;;;;;;;;;;;;;;1271454;23;19904;-16
2023/07/24 01:19:48;;;;;;;;;;;;;;;;;;1271343;23;20233;-18
2023/07/24 01:20:18;;;;;;;;;;;;;;;;;;1271370;23;20336;-18
2023/07/24 01:20:48;;;;;;;;;;;;;;;;;;1271008;23;19912;-19
2023/07/24 01:21:19;;;;;;;;;;;;;;;;;;1271467;23;19914;-20
2023/07/24 01:21:49;;;;;;;;;;;;;;;;;;1271262;23;19912;-18
2023/07/24 01:22:19;;;;;;;;;;;;;;;;;;1271526;23;19909;-18
2023/07/24 01:22:49;;;;;;;;;;;;;;;;;;1271084;23;19911;-20
2023/07/24 01:23:20;;;;;;;;;;;;;;;;;;1271467;23;19904;-18
2023/07/24 01:23:50;;;;;;;;;;;;;;;;;;1270966;23;19908;-21
2023/07/24 01:24:20;;;;;;;;;;;;;;;;;;1271429;23;19950;-18
2023/07/24 01:24:51;;;;;;;;;;;;;;;;;;1271050;23;19908;-19
2023/07/24 01:25:21;;;;;;;;;;;;;;;;;;1270986;23;19905;-18
2023/07/24 01:25:51;;;;;;;;;;;;;;;;;;1271354;23;19943;-22
2023/07/24 01:26:23;;;;;;;;;;;;;;;;;;1271471;23;19905;-18
2023/07/24 01:26:54;;;;;;;;;;;;;;;;;;1271002;23;20218;-18
2023/07/24 01:27:24;;;;;;;;;;;;;;;;;;1271517;23;19912;-20
2023/07/24 01:27:54;;;;;;;;;;;;;;;;;;1271255;23;19935;-20
2023/07/24 01:28:24;;;;;;;;;;;;;;;;;;1271448;23;19912;-20
2023/07/24 01:28:55;;;;;;;;;;;;;;;;;;1271042;23;20007;-20
2023/07/24 01:29:25;;;;;;;;;;;;;;;;;;1271506;23;20435;-21
2023/07/24 01:29:55;;;;;;;;;;;;;;;;;;1271316;23;20222;-20
2023/07/24 01:30:25;;;;;;;;;;;;;;;;;;1271394;23;19905;-19
2023/07/24 01:30:56;;;;;;;;;;;;;;;;;;1271176;23;20327;-18
2023/07/24 01:31:26;;;;;;;;;;;;;;;;;;1271468;23;19995;-16
2023/07/24 01:31:56;;;;;;;;;;;;;;;;;;1270865;23;19908;-19
2023/07/24 01:32:26;;;;;;;;;;;;;;;;;;1271438;23;19992;-22
2023/07/24 01:32:56;;;;;;;;;;;;;;;;;;1270789;23;19963;-20
2023/07/24 01:33:27;;;;;;;;;;;;;;;;;;1270895;23;20306;-21
2023/07/24 01:33:57;;;;;;;;;;;;;;;;;;1271208;23;19904;-20
2023/07/24 01:34:27;;;;;;;;;;;;;;;;;;1271383;23;19905;-19
2023/07/24 01:34:57;;;;;;;;;;;;;;;;;;1271126;23;19904;-18
2023/07/24 01:35:28;;;;;;;;;;;;;;;;;;1271450;23;19916;-21
2023/07/24 01:35:58;;;;;;;;;;;;;;;;;;1271173;23;19987;-19
2023/07/24 01:36:28;;;;;;;;;;;;;;;;;;1271315;23;19950;-18
2023/07/24 01:36:58;;;;;;;;;;;;;;;;;;1271104;23;20368;-19
2023/07/24 01:37:28;;;;;;;;;;;;;;;;;;1270776;23;20311;-17
2023/07/24 01:37:59;;;;;;;;;;;;;;;;;;1271250;23;20251;-19
2023/07/24 01:38:29;;;;;;;;;;;;;;;;;;1271238;23;20241;-21
2023/07/24 01:39:00;;;;;;;;;;;;;;;;;;1271103;23;20225;-21
2023/07/24 01:39:30;;;;;;;;;;;;;;;;;;1271550;23;20318;-20
2023/07/24 01:40:01;;;;;;;;;;;;;;;;;;1271166;23;19904;-18
2023/07/24 01:40:31;;;;;;;;;;;;;;;;;;1271295;23;19909;-20
2023/07/24 01:41:01;;;;;;;;;;;;;;;;;;1271205;23;19948;-18
2023/07/24 01:41:31;;;;;;;;;;;;;;;;;;1271556;23;19987;-20
2023/07/24 01:42:01;;;;;;;;;;;;;;;;;;1271019;23;19905;-22
2023/07/24 01:42:32;;;;;;;;;;;;;;;;;;1271125;23;20328;-22
2023/07/24 01:43:02;;;;;;;;;;;;;;;;;;1270876;23;20251;-18
2023/07/24 01:43:32;;;;;;;;;;;;;;;;;;1271435;23;19939;-20
2023/07/24 01:44:02;;;;;;;;;;;;;;;;;;1269881;23;19905;-18
2023/07/24 01:44:33;;;;;;;;;;;;;;;;;;1270524;23;19905;-19
2023/07/24 01:45:03;;;;;;;;;;;;;;;;;;1270962;23;19950;-19
2023/07/24 01:45:33;;;;;;;;;;;;;;;;;;1271210;23;19909;-21
2023/07/24 01:46:03;;;;;;;;;;;;;;;;;;1270980;23;19912;-20
2023/07/24 01:46:33;;;;;;;;;;;;;;;;;;1270701;23;19905;-19
2023/07/24 01:47:04;;;;;;;;;;;;;;;;;;1271182;23;19905;-17
2023/07/24 01:47:34;;;;;;;;;;;;;;;;;;1271341;23;19911;-16
2023/07/24 01:48:05;;;;;;;;;;;;;;;;;;1271055;23;19916;-16
2023/07/24 01:48:35;;;;;;;;;;;;;;;;;;1271201;23;19919;-17
2023/07/24 01:49:05;;;;;;;;;;;;;;;;;;1271464;23;19911;-20
2023/07/24 01:49:35;;;;;;;;;;;;;;;;;;1271675;23;20002;-19
2023/07/24 01:50:06;;;;;;;;;;;;;;;;;;1271466;23;19940;-19
2023/07/24 01:50:36;;;;;;;;;;;;;;;;;;1271301;23;19919;-20
2023/07/24 01:51:06;;;;;;;;;;;;;;;;;;1269522;23;19904;-19
2023/07/24 01:51:37;;;;;;;;;;;;;;;;;;1270358;23;20311;-20
2023/07/24 01:52:07;;;;;;;;;;;;;;;;;;1271464;23;19950;-17
2023/07/24 01:52:37;;;;;;;;;;;;;;;;;;1271329;23;19908;-18
2023/07/24 01:53:08;;;;;;;;;;;;;;;;;;1271405;23;19911;-14
2023/07/24 01:53:38;;;;;;;;;;;;;;;;;;1271134;23;19923;-18
2023/07/24 01:54:08;;;;;;;;;;;;;;;;;;1270807;23;19919;-18
2023/07/24 01:54:39;;;;;;;;;;;;;;;;;;1271298;23;19908;-19
2023/07/24 01:55:09;;;;;;;;;;;;;;;;;;1271281;23;19912;-18
2023/07/24 01:55:39;;;;;;;;;;;;;;;;;;1271712;23;20275;-20
2023/07/24 01:56:09;;;;;;;;;;;;;;;;;;1271154;23;19904;-18
2023/07/24 01:56:39;;;;;;;;;;;;;;;;;;1271383;23;19912;-17
2023/07/24 01:57:10;;;;;;;;;;;;;;;;;;1271550;23;19905;-18
2023/07/24 01:57:40;;;;;;;;;;;;;;;;;;1271633;23;19916;-18
2023/07/24 01:58:10;;;;;;;;;;;;;;;;;;1271484;23;19905;-19
2023/07/24 01:58:40;;;;;;;;;;;;;;;;;;1271369;23;19909;-19
2023/07/24 01:59:10;;;;;;;;;;;;;;;;;;1271411;23;19904;-19
2023/07/24 01:59:41;;;;;;;;;;;;;;;;;;1265202;23;19960;-16
2023/07/24 02:00:11;;;;;;;;;;;;;;;;;;1264961;23;19905;-20
2023/07/24 02:00:41;;;;;;;;;;;;;;;;;;1264806;23;20245;-18
2023/07/24 02:01:12;;;;;;;;;;;;;;;;;;1264835;23;19916;-20
2023/07/24 02:01:42;;;;;;;;;;;;;;;;;;1271337;23;19908;-19
2023/07/24 02:02:12;;;;;;;;;;;;;;;;;;1271621;23;19987;-18
2023/07/24 02:02:42;;;;;;;;;;;;;;;;;;1271315;23;19954;-19
2023/07/24 02:03:13;;;;;;;;;;;;;;;;;;1271499;23;19905;-18
2023/07/24 02:03:43;;;;;;;;;;;;;;;;;;1271703;23;19961;-17
2023/07/24 02:04:13;;;;;;;;;;;;;;;;;;1271482;23;19911;-20
2023/07/24 02:04:43;;;;;;;;;;;;;;;;;;1271396;23;19915;-20
2023/07/24 02:05:13;;;;;;;;;;;;;;;;;;1271364;23;20320;-19
2023/07/24 02:05:44;;;;;;;;;;;;;;;;;;1271580;23;20037;-21
2023/07/24 02:06:14;;;;;;;;;;;;;;;;;;1264746;23;19905;-18
2023/07/24 02:06:44;;;;;;;;;;;;;;;;;;1264966;23;20254;-19
2023/07/24 02:07:14;;;;;;;;;;;;;;;;;;1265093;23;19913;-18
2023/07/24 02:07:45;;;;;;;;;;;;;;;;;;1264526;23;19913;-17
2023/07/24 02:08:15;;;;;;;;;;;;;;;;;;1271408;23;20392;-21
2023/07/24 02:08:48;;;;;;;;;;;;;;;;;;1271307;23;20325;-20
2023/07/24 02:09:18;;;;;;;;;;;;;;;;;;1271617;23;19904;-17
2023/07/24 02:09:49;;;;;;;;;;;;;;;;;;1271490;23;19908;-16
2023/07/24 02:10:19;;;;;;;;;;;;;;;;;;1271673;23;19905;-19
2023/07/24 02:10:50;;;;;;;;;;;;;;;;;;1271023;23;19911;-17
2023/07/24 02:11:20;;;;;;;;;;;;;;;;;;1271777;23;19991;-18
2023/07/24 02:11:51;;;;;;;;;;;;;;;;;;1271493;23;19905;-16
2023/07/24 02:12:21;;;;;;;;;;;;;;;;;;1271704;23;19995;-20
2023/07/24 02:12:51;;;;;;;;;;;;;;;;;;1271131;23;20457;-20
2023/07/24 02:13:21;;;;;;;;;;;;;;;;;;1271513;23;19987;-18
2023/07/24 02:13:52;;;;;;;;;;;;;;;;;;1271450;23;19917;-21
2023/07/24 02:14:22;;;;;;;;;;;;;;;;;;1270991;23;19911;-20
2023/07/24 02:14:53;;;;;;;;;;;;;;;;;;1271071;23;19911;-19
2023/07/24 02:15:23;;;;;;;;;;;;;;;;;;1271376;23;19912;-21
2023/07/24 02:15:53;;;;;;;;;;;;;;;;;;1271531;23;20237;-20
2023/07/24 02:16:24;;;;;;;;;;;;;;;;;;1270910;23;19908;-19
2023/07/24 02:16:54;;;;;;;;;;;;;;;;;;1271296;23;20029;-19
2023/07/24 02:17:24;;;;;;;;;;;;;;;;;;1271717;23;19912;-19
2023/07/24 02:17:55;;;;;;;;;;;;;;;;;;1271484;23;20356;-16
2023/07/24 02:18:25;;;;;;;;;;;;;;;;;;1271637;23;20016;-17
2023/07/24 02:18:55;;;;;;;;;;;;;;;;;;1271361;23;19927;-16
2023/07/24 02:19:25;;;;;;;;;;;;;;;;;;1271523;23;19936;-18
2023/07/24 02:19:55;;;;;;;;;;;;;;;;;;1271554;23;20218;-21
2023/07/24 02:20:26;;;;;;;;;;;;;;;;;;1271216;23;21241;-21
2023/07/24 02:20:56;;;;;;;;;;;;;;;;;;1271152;23;20262;-18
2023/07/24 02:21:26;;;;;;;;;;;;;;;;;;1271676;23;20340;-19
2023/07/24 02:21:57;;;;;;;;;;;;;;;;;;1264842;23;20304;-19
2023/07/24 02:22:27;;;;;;;;;;;;;;;;;;1265041;23;19932;-21
2023/07/24 02:22:57;;;;;;;;;;;;;;;;;;1264881;23;19905;-21
2023/07/24 02:23:27;;;;;;;;;;;;;;;;;;1265267;23;20325;-19
2023/07/24 02:23:57;;;;;;;;;;;;;;;;;;1271270;23;19904;-17
2023/07/24 02:24:28;;;;;;;;;;;;;;;;;;1271586;23;19930;-16
2023/07/24 02:24:58;;;;;;;;;;;;;;;;;;1271525;23;19912;-18
2023/07/24 02:25:28;;;;;;;;;;;;;;;;;;1271661;23;19909;-22
2023/07/24 02:25:58;;;;;;;;;;;;;;;;;;1271635;23;19901;-19
2023/07/24 02:26:29;;;;;;;;;;;;;;;;;;1271536;23;19905;-22
2023/07/24 02:26:59;;;;;;;;;;;;;;;;;;1271402;23;19950;-20
2023/07/24 02:27:31;;;;;;;;;;;;;;;;;;1271714;23;19904;-19
2023/07/24 02:28:01;;;;;;;;;;;;;;;;;;1270535;23;19904;-20
2023/07/24 02:28:31;;;;;;;;;;;;;;;;;;1270666;23;19904;-20
2023/07/24 02:29:01;;;;;;;;;;;;;;;;;;1271369;23;19912;-19
2023/07/24 02:29:31;;;;;;;;;;;;;;;;;;1271508;23;19955;-21
2023/07/24 02:30:02;;;;;;;;;;;;;;;;;;1271274;23;19905;-16
2023/07/24 02:30:32;;;;;;;;;;;;;;;;;;1271069;23;19909;-20
2023/07/24 02:31:02;;;;;;;;;;;;;;;;;;1271019;23;19905;-18
2023/07/24 02:31:32;;;;;;;;;;;;;;;;;;1271874;23;20233;-16
2023/07/24 02:32:02;;;;;;;;;;;;;;;;;;1264335;23;20289;-20
2023/07/24 02:32:33;;;;;;;;;;;;;;;;;;1264983;23;20002;-18
2023/07/24 02:33:03;;;;;;;;;;;;;;;;;;1264944;23;19905;-20
2023/07/24 02:33:33;;;;;;;;;;;;;;;;;;1264973;23;19911;-19
2023/07/24 02:34:03;;;;;;;;;;;;;;;;;;1271375;23;19905;-18
2023/07/24 02:34:34;;;;;;;;;;;;;;;;;;1271451;23;19904;-21
2023/07/24 02:35:04;;;;;;;;;;;;;;;;;;1271483;23;19904;-20
2023/07/24 02:35:34;;;;;;;;;;;;;;;;;;1271678;23;19954;-21
2023/07/24 02:36:04;;;;;;;;;;;;;;;;;;1271425;23;20154;-20
2023/07/24 02:36:34;;;;;;;;;;;;;;;;;;1264947;23;19913;-18
2023/07/24 02:37:05;;;;;;;;;;;;;;;;;;1264992;23;19913;-18
2023/07/24 02:37:35;;;;;;;;;;;;;;;;;;1265223;23;19920;-19
2023/07/24 02:38:05;;;;;;;;;;;;;;;;;;1264822;23;20280;-18
2023/07/24 02:38:35;;;;;;;;;;;;;;;;;;1271417;23;19966;-22
2023/07/24 02:39:06;;;;;;;;;;;;;;;;;;1271522;23;19905;-19
2023/07/24 02:39:36;;;;;;;;;;;;;;;;;;1271741;23;19913;-20
2023/07/24 02:40:06;;;;;;;;;;;;;;;;;;1271456;23;20244;-21
2023/07/24 02:40:36;;;;;;;;;;;;;;;;;;1271344;23;20359;-21
2023/07/24 02:41:06;;;;;;;;;;;;;;;;;;1271463;23;20332;-20
2023/07/24 02:41:37;;;;;;;;;;;;;;;;;;1271642;23;19908;-20
2023/07/24 02:42:07;;;;;;;;;;;;;;;;;;1271553;23;19905;-21
2023/07/24 02:42:37;;;;;;;;;;;;;;;;;;1271360;23;20321;-20
2023/07/24 02:43:07;;;;;;;;;;;;;;;;;;1271582;23;20344;-21
2023/07/24 02:43:38;;;;;;;;;;;;;;;;;;1271658;23;20321;-20
2023/07/24 02:44:08;;;;;;;;;;;;;;;;;;1271566;23;19987;-16
2023/07/24 02:44:38;;;;;;;;;;;;;;;;;;1271305;23;19916;-19
2023/07/24 02:45:10;;;;;;;;;;;;;;;;;;1271282;23;19943;-19
2023/07/24 02:45:40;;;;;;;;;;;;;;;;;;1271491;23;19958;-16
2023/07/24 02:46:11;;;;;;;;;;;;;;;;;;1271426;23;19954;-22
2023/07/24 02:46:41;;;;;;;;;;;;;;;;;;1271394;23;19908;-18
2023/07/24 02:47:11;;;;;;;;;;;;;;;;;;1271516;23;19965;-22
2023/07/24 02:47:42;;;;;;;;;;;;;;;;;;1271631;23;19909;-20
2023/07/24 02:48:12;;;;;;;;;;;;;;;;;;1271511;23;19958;-19
2023/07/24 02:48:42;;;;;;;;;;;;;;;;;;1271374;23;20406;-19
2023/07/24 02:49:13;;;;;;;;;;;;;;;;;;1271520;23;19930;-19
2023/07/24 02:49:43;;;;;;;;;;;;;;;;;;1271491;23;20344;-21
2023/07/24 02:50:13;;;;;;;;;;;;;;;;;;1271134;23;20363;-22
2023/07/24 02:50:43;;;;;;;;;;;;;;;;;;1271285;23;19940;-18
2023/07/24 02:51:14;;;;;;;;;;;;;;;;;;1271384;23;19905;-18
2023/07/24 02:51:44;;;;;;;;;;;;;;;;;;1271732;23;19909;-19
2023/07/24 02:52:14;;;;;;;;;;;;;;;;;;1271423;23;20319;-17
2023/07/24 02:52:44;;;;;;;;;;;;;;;;;;1271371;23;19936;-20
2023/07/24 02:53:14;;;;;;;;;;;;;;;;;;1271491;23;19912;-22
2023/07/24 02:53:45;;;;;;;;;;;;;;;;;;1271021;23;19913;-21
2023/07/24 02:54:15;;;;;;;;;;;;;;;;;;1271541;23;19913;-18
2023/07/24 02:54:45;;;;;;;;;;;;;;;;;;1271246;23;19909;-21
2023/07/24 02:55:15;;;;;;;;;;;;;;;;;;1264963;23;19905;-21
2023/07/24 02:55:46;;;;;;;;;;;;;;;;;;1265256;23;19913;-21
2023/07/24 02:56:16;;;;;;;;;;;;;;;;;;1265022;23;19905;-18
2023/07/24 02:56:46;;;;;;;;;;;;;;;;;;1264812;23;19916;-17
2023/07/24 02:57:16;;;;;;;;;;;;;;;;;;1270570;23;19920;-20
2023/07/24 02:57:46;;;;;;;;;;;;;;;;;;1271496;23;19959;-20
2023/07/24 02:58:17;;;;;;;;;;;;;;;;;;1271540;23;19905;-18
2023/07/24 02:58:47;;;;;;;;;;;;;;;;;;1271336;23;19983;-19
2023/07/24 02:59:17;;;;;;;;;;;;;;;;;;1271278;23;19911;-18
2023/07/24 02:59:47;;;;;;;;;;;;;;;;;;1271540;23;19905;-21
2023/07/24 03:00:18;;;;;;;;;;;;;;;;;;1271405;23;19905;-17
2023/07/24 03:00:48;;;;;;;;;;;;;;;;;;1271097;23;19983;-21
2023/07/24 03:01:18;;;;;;;;;;;;;;;;;;1271487;23;19911;-21
2023/07/24 03:01:48;;;;;;;;;;;;;;;;;;1271440;23;19904;-18
2023/07/24 03:02:19;;;;;;;;;;;;;;;;;;1271725;23;19991;-21
2023/07/24 03:02:49;;;;;;;;;;;;;;;;;;1271032;23;19911;-19
2023/07/24 03:03:20;;;;;;;;;;;;;;;;;;1271615;23;19905;-18
2023/07/24 03:03:50;;;;;;;;;;;;;;;;;;1264900;23;19936;-19
2023/07/24 03:04:20;;;;;;;;;;;;;;;;;;1265206;23;19920;-20
2023/07/24 03:04:51;;;;;;;;;;;;;;;;;;1264379;23;19905;-19
2023/07/24 03:05:21;;;;;;;;;;;;;;;;;;1264641;23;19905;-19
2023/07/24 03:05:51;;;;;;;;;;;;;;;;;;1270932;23;19959;-20
2023/07/24 03:06:22;;;;;;;;;;;;;;;;;;1271520;23;19905;-20
2023/07/24 03:06:52;;;;;;;;;;;;;;;;;;1270999;23;19911;-17
2023/07/24 03:07:22;;;;;;;;;;;;;;;;;;1271533;23;19904;-21
2023/07/24 03:07:52;;;;;;;;;;;;;;;;;;1271098;23;19905;-15
2023/07/24 03:08:23;;;;;;;;;;;;;;;;;;1271301;23;20039;-19
2023/07/24 03:08:53;;;;;;;;;;;;;;;;;;1271102;23;19905;-17
2023/07/24 03:09:23;;;;;;;;;;;;;;;;;;1271426;23;20268;-21
2023/07/24 03:09:53;;;;;;;;;;;;;;;;;;1271396;23;20317;-19
2023/07/24 03:10:24;;;;;;;;;;;;;;;;;;1265151;23;19912;-20
2023/07/24 03:10:54;;;;;;;;;;;;;;;;;;1263887;23;19912;-18
2023/07/24 03:11:24;;;;;;;;;;;;;;;;;;1265096;23;19905;-21
2023/07/24 03:11:54;;;;;;;;;;;;;;;;;;1264853;23;20330;-22
2023/07/24 03:12:25;;;;;;;;;;;;;;;;;;1271010;23;19940;-18
2023/07/24 03:12:55;;;;;;;;;;;;;;;;;;1270998;23;20420;-21
2023/07/24 03:13:25;;;;;;;;;;;;;;;;;;1271447;23;20249;-19
2023/07/24 03:13:55;;;;;;;;;;;;;;;;;;1271336;23;19912;-22
2023/07/24 03:14:26;;;;;;;;;;;;;;;;;;1271600;23;19992;-19
2023/07/24 03:14:56;;;;;;;;;;;;;;;;;;1271161;23;19905;-20
2023/07/24 03:15:26;;;;;;;;;;;;;;;;;;1271572;23;19912;-21
2023/07/24 03:15:57;;;;;;;;;;;;;;;;;;1271320;23;19905;-20
2023/07/24 03:16:27;;;;;;;;;;;;;;;;;;1271605;23;19905;-19
2023/07/24 03:16:57;;;;;;;;;;;;;;;;;;1271280;23;19915;-21
2023/07/24 03:17:27;;;;;;;;;;;;;;;;;;1271416;23;19905;-21
2023/07/24 03:17:58;;;;;;;;;;;;;;;;;;1271306;23;19904;-19
2023/07/24 03:18:28;;;;;;;;;;;;;;;;;;1271386;23;19955;-21
2023/07/24 03:18:58;;;;;;;;;;;;;;;;;;1271257;23;19987;-20
2023/07/24 03:19:28;;;;;;;;;;;;;;;;;;1271506;23;19991;-22
2023/07/24 03:19:59;;;;;;;;;;;;;;;;;;1271378;23;20291;-20
2023/07/24 03:20:29;;;;;;;;;;;;;;;;;;1271345;23;20290;-21
2023/07/24 03:20:59;;;;;;;;;;;;;;;;;;1271090;23;19901;-19
2023/07/24 03:21:29;;;;;;;;;;;;;;;;;;1271735;23;19911;-19
2023/07/24 03:22:00;;;;;;;;;;;;;;;;;;1271341;23;19931;-21
2023/07/24 03:22:30;;;;;;;;;;;;;;;;;;1271508;23;19904;-18
2023/07/24 03:23:00;;;;;;;;;;;;;;;;;;1271326;23;20313;-18
2023/07/24 03:23:30;;;;;;;;;;;;;;;;;;1271680;23;20233;-20
2023/07/24 03:24:00;;;;;;;;;;;;;;;;;;1270998;23;20249;-19
2023/07/24 03:24:31;;;;;;;;;;;;;;;;;;1271446;23;19904;-22
2023/07/24 03:25:01;;;;;;;;;;;;;;;;;;1271141;23;19911;-18
2023/07/24 03:25:35;;;;;;;;;;;;;;;;;;1271650;23;19909;-21
2023/07/24 03:26:05;;;;;;;;;;;;;;;;;;1271478;23;20333;-18
2023/07/24 03:26:35;;;;;;;;;;;;;;;;;;1271350;23;19912;-20